sensor_id;sensor_type;location;lat;lon;timestamp;temperature;humidity
15574;DHT22;7888;46.748;8.102;2023-03-08T00:01:13;10.40;45.30
15574;DHT22;7888;46.748;8.102;2023-03-08T00:03:40;10.40;45.50
15574;DHT22;7888;46.748;8.102;2023-03-08T00:06:07;10.40;45.40
15574;DHT22;7888;46.748;8.102;2023-03-08T00:08:36;10.40;45.40
15574;DHT22;7888;46.748;8.102;2023-03-08T00:11:06;10.30;45.30
15574;DHT22;7888;46.748;8.102;2023-03-08T00:13:34;10.30;45.60
15574;DHT22;7888;46.748;8.102;2023-03-08T00:16:04;10.40;45.50
15574;DHT22;7888;46.748;8.102;2023-03-08T00:18:33;10.30;45.50
15574;DHT22;7888;46.748;8.102;2023-03-08T00:21:09;10.30;45.60
15574;DHT22;7888;46.748;8.102;2023-03-08T00:23:37;10.30;45.60
15574;DHT22;7888;46.748;8.102;2023-03-08T00:26:04;10.30;45.50
15574;DHT22;7888;46.748;8.102;2023-03-08T00:28:30;10.30;45.50
15574;DHT22;7888;46.748;8.102;2023-03-08T00:31:05;10.30;45.50
15574;DHT22;7888;46.748;8.102;2023-03-08T00:33:32;10.20;45.80
15574;DHT22;7888;46.748;8.102;2023-03-08T00:36:12;10.20;45.60
15574;DHT22;7888;46.748;8.102;2023-03-08T00:38:39;10.20;46.10
15574;DHT22;7888;46.748;8.102;2023-03-08T00:41:05;10.20;45.60
15574;DHT22;7888;46.748;8.102;2023-03-08T00:43:31;10.20;45.60
15574;DHT22;7888;46.748;8.102;2023-03-08T00:45:58;10.20;45.60
15574;DHT22;7888;46.748;8.102;2023-03-08T00:48:25;10.20;45.60
15574;DHT22;7888;46.748;8.102;2023-03-08T00:50:51;10.20;45.70
15574;DHT22;7888;46.748;8.102;2023-03-08T00:53:17;10.20;45.80
15574;DHT22;7888;46.748;8.102;2023-03-08T00:55:55;10.20;45.80
15574;DHT22;7888;46.748;8.102;2023-03-08T00:58:23;10.20;46.30
15574;DHT22;7888;46.748;8.102;2023-03-08T01:00:50;10.20;45.90
15574;DHT22;7888;46.748;8.102;2023-03-08T01:03:17;10.20;45.80
15574;DHT22;7888;46.748;8.102;2023-03-08T01:05:46;10.20;45.90
15574;DHT22;7888;46.748;8.102;2023-03-08T01:08:14;10.20;46.00
15574;DHT22;7888;46.748;8.102;2023-03-08T01:10:47;10.20;46.10
15574;DHT22;7888;46.748;8.102;2023-03-08T01:13:13;10.20;46.20
15574;DHT22;7888;46.748;8.102;2023-03-08T01:15:40;10.10;46.00
15574;DHT22;7888;46.748;8.102;2023-03-08T01:18:05;10.20;46.10
15574;DHT22;7888;46.748;8.102;2023-03-08T01:20:32;10.20;46.00
15574;DHT22;7888;46.748;8.102;2023-03-08T01:22:58;10.10;46.10
15574;DHT22;7888;46.748;8.102;2023-03-08T01:25:24;10.10;45.90
15574;DHT22;7888;46.748;8.102;2023-03-08T01:27:50;10.10;45.80
15574;DHT22;7888;46.748;8.102;2023-03-08T01:30:16;10.10;46.10
15574;DHT22;7888;46.748;8.102;2023-03-08T01:32:42;10.10;46.10
15574;DHT22;7888;46.748;8.102;2023-03-08T01:35:08;10.10;46.70
15574;DHT22;7888;46.748;8.102;2023-03-08T01:37:34;10.00;46.20
15574;DHT22;7888;46.748;8.102;2023-03-08T01:40:01;10.00;46.20
15574;DHT22;7888;46.748;8.102;2023-03-08T01:42:27;10.00;46.20
15574;DHT22;7888;46.748;8.102;2023-03-08T01:44:54;10.00;46.20
15574;DHT22;7888;46.748;8.102;2023-03-08T01:47:26;10.00;46.20
15574;DHT22;7888;46.748;8.102;2023-03-08T01:50:05;9.90;46.20
15574;DHT22;7888;46.748;8.102;2023-03-08T01:52:42;9.90;46.50
15574;DHT22;7888;46.748;8.102;2023-03-08T01:55:14;9.90;46.20
15574;DHT22;7888;46.748;8.102;2023-03-08T01:57:56;9.90;46.10
15574;DHT22;7888;46.748;8.102;2023-03-08T02:00:23;9.90;46.30
15574;DHT22;7888;46.748;8.102;2023-03-08T02:03:03;9.90;46.10
15574;DHT22;7888;46.748;8.102;2023-03-08T02:05:31;9.90;46.50
15574;DHT22;7888;46.748;8.102;2023-03-08T02:07:58;9.90;46.20
15574;DHT22;7888;46.748;8.102;2023-03-08T02:10:23;9.80;46.10
15574;DHT22;7888;46.748;8.102;2023-03-08T02:12:49;9.80;46.10
15574;DHT22;7888;46.748;8.102;2023-03-08T02:15:18;9.70;46.10
15574;DHT22;7888;46.748;8.102;2023-03-08T02:17:46;9.70;46.20
15574;DHT22;7888;46.748;8.102;2023-03-08T02:20:27;9.70;46.10
15574;DHT22;7888;46.748;8.102;2023-03-08T02:23:21;9.60;46.30
15574;DHT22;7888;46.748;8.102;2023-03-08T02:25:54;9.60;47.30
15574;DHT22;7888;46.748;8.102;2023-03-08T02:28:24;9.60;46.60
15574;DHT22;7888;46.748;8.102;2023-03-08T02:30:51;9.60;46.90
15574;DHT22;7888;46.748;8.102;2023-03-08T02:33:18;9.60;46.30
15574;DHT22;7888;46.748;8.102;2023-03-08T02:35:44;9.50;46.40
15574;DHT22;7888;46.748;8.102;2023-03-08T02:38:12;9.50;46.30
15574;DHT22;7888;46.748;8.102;2023-03-08T02:40:39;9.50;46.40
15574;DHT22;7888;46.748;8.102;2023-03-08T02:43:05;9.50;46.40
15574;DHT22;7888;46.748;8.102;2023-03-08T02:45:31;9.40;46.70
15574;DHT22;7888;46.748;8.102;2023-03-08T02:48:00;9.40;46.90
15574;DHT22;7888;46.748;8.102;2023-03-08T02:50:26;9.40;47.30
15574;DHT22;7888;46.748;8.102;2023-03-08T02:52:52;9.40;47.50
15574;DHT22;7888;46.748;8.102;2023-03-08T02:55:18;9.40;47.60
15574;DHT22;7888;46.748;8.102;2023-03-08T02:57:44;9.50;47.40
15574;DHT22;7888;46.748;8.102;2023-03-08T03:00:11;9.50;47.20
15574;DHT22;7888;46.748;8.102;2023-03-08T03:02:37;9.50;47.00
15574;DHT22;7888;46.748;8.102;2023-03-08T03:05:04;9.50;46.80
15574;DHT22;7888;46.748;8.102;2023-03-08T03:07:34;9.50;46.70
15574;DHT22;7888;46.748;8.102;2023-03-08T03:10:01;9.50;46.70
15574;DHT22;7888;46.748;8.102;2023-03-08T03:12:29;9.50;46.70
15574;DHT22;7888;46.748;8.102;2023-03-08T03:14:55;9.50;46.50
15574;DHT22;7888;46.748;8.102;2023-03-08T03:17:21;9.40;46.50
15574;DHT22;7888;46.748;8.102;2023-03-08T03:19:47;9.40;46.50
15574;DHT22;7888;46.748;8.102;2023-03-08T03:22:13;9.40;46.50
15574;DHT22;7888;46.748;8.102;2023-03-08T03:24:39;9.30;46.50
15574;DHT22;7888;46.748;8.102;2023-03-08T03:27:05;9.30;46.50
15574;DHT22;7888;46.748;8.102;2023-03-08T03:29:30;9.20;46.70
15574;DHT22;7888;46.748;8.102;2023-03-08T03:31:56;9.20;46.80
15574;DHT22;7888;46.748;8.102;2023-03-08T03:34:22;9.20;46.90
15574;DHT22;7888;46.748;8.102;2023-03-08T03:36:48;9.10;46.80
15574;DHT22;7888;46.748;8.102;2023-03-08T03:39:14;9.10;46.90
15574;DHT22;7888;46.748;8.102;2023-03-08T03:41:39;9.10;47.00
15574;DHT22;7888;46.748;8.102;2023-03-08T03:44:05;9.00;46.90
15574;DHT22;7888;46.748;8.102;2023-03-08T03:46:31;9.00;46.80
15574;DHT22;7888;46.748;8.102;2023-03-08T03:48:57;9.00;46.90
15574;DHT22;7888;46.748;8.102;2023-03-08T03:51:23;9.00;47.00
15574;DHT22;7888;46.748;8.102;2023-03-08T03:53:48;9.00;47.00
15574;DHT22;7888;46.748;8.102;2023-03-08T03:56:23;9.00;47.00
15574;DHT22;7888;46.748;8.102;2023-03-08T03:58:51;9.00;47.30
15574;DHT22;7888;46.748;8.102;2023-03-08T04:01:29;9.00;47.10
15574;DHT22;7888;46.748;8.102;2023-03-08T04:03:56;8.90;47.70
15574;DHT22;7888;46.748;8.102;2023-03-08T04:06:26;9.00;47.00
15574;DHT22;7888;46.748;8.102;2023-03-08T04:08:56;8.90;47.10
15574;DHT22;7888;46.748;8.102;2023-03-08T04:11:28;8.90;47.20
15574;DHT22;7888;46.748;8.102;2023-03-08T04:13:57;8.90;47.20
15574;DHT22;7888;46.748;8.102;2023-03-08T04:16:26;8.90;47.20
15574;DHT22;7888;46.748;8.102;2023-03-08T04:18:58;8.90;47.30
15574;DHT22;7888;46.748;8.102;2023-03-08T04:21:28;8.90;47.10
15574;DHT22;7888;46.748;8.102;2023-03-08T04:23:56;8.90;47.10
15574;DHT22;7888;46.748;8.102;2023-03-08T04:26:23;8.90;47.30
15574;DHT22;7888;46.748;8.102;2023-03-08T04:28:49;8.90;47.20
15574;DHT22;7888;46.748;8.102;2023-03-08T04:31:18;8.90;47.50
15574;DHT22;7888;46.748;8.102;2023-03-08T04:33:46;8.90;47.60
15574;DHT22;7888;46.748;8.102;2023-03-08T04:36:14;8.90;47.40
15574;DHT22;7888;46.748;8.102;2023-03-08T04:38:41;8.80;47.30
15574;DHT22;7888;46.748;8.102;2023-03-08T04:41:07;8.80;47.30
15574;DHT22;7888;46.748;8.102;2023-03-08T04:43:48;8.80;47.40
15574;DHT22;7888;46.748;8.102;2023-03-08T04:46:20;8.80;47.60
15574;DHT22;7888;46.748;8.102;2023-03-08T04:48:48;8.80;47.40
15574;DHT22;7888;46.748;8.102;2023-03-08T04:51:17;8.80;47.30
15574;DHT22;7888;46.748;8.102;2023-03-08T04:53:43;8.80;47.40
15574;DHT22;7888;46.748;8.102;2023-03-08T04:56:11;8.70;47.50
15574;DHT22;7888;46.748;8.102;2023-03-08T04:58:39;8.70;47.80
15574;DHT22;7888;46.748;8.102;2023-03-08T05:01:11;8.70;47.80
15574;DHT22;7888;46.748;8.102;2023-03-08T05:03:38;8.70;48.00
15574;DHT22;7888;46.748;8.102;2023-03-08T05:06:05;8.60;47.80
15574;DHT22;7888;46.748;8.102;2023-03-08T05:08:32;8.60;47.90
15574;DHT22;7888;46.748;8.102;2023-03-08T05:11:00;8.60;48.00
15574;DHT22;7888;46.748;8.102;2023-03-08T05:13:28;8.50;48.20
15574;DHT22;7888;46.748;8.102;2023-03-08T05:15:56;8.50;48.20
15574;DHT22;7888;46.748;8.102;2023-03-08T05:18:22;8.50;48.30
15574;DHT22;7888;46.748;8.102;2023-03-08T05:20:58;8.50;48.30
15574;DHT22;7888;46.748;8.102;2023-03-08T05:23:26;8.50;48.80
15574;DHT22;7888;46.748;8.102;2023-03-08T05:26:03;8.50;48.50
15574;DHT22;7888;46.748;8.102;2023-03-08T05:28:32;8.40;48.90
15574;DHT22;7888;46.748;8.102;2023-03-08T05:31:05;8.40;48.60
15574;DHT22;7888;46.748;8.102;2023-03-08T05:33:39;8.50;48.90
15574;DHT22;7888;46.748;8.102;2023-03-08T05:36:07;8.50;48.80
15574;DHT22;7888;46.748;8.102;2023-03-08T05:38:33;8.40;48.60
15574;DHT22;7888;46.748;8.102;2023-03-08T05:41:00;8.40;48.60
15574;DHT22;7888;46.748;8.102;2023-03-08T05:43:28;8.40;48.70
15574;DHT22;7888;46.748;8.102;2023-03-08T05:45:59;8.40;48.80
15574;DHT22;7888;46.748;8.102;2023-03-08T05:48:28;8.40;49.00
15574;DHT22;7888;46.748;8.102;2023-03-08T05:50:54;8.40;48.80
15574;DHT22;7888;46.748;8.102;2023-03-08T05:53:21;8.40;48.70
15574;DHT22;7888;46.748;8.102;2023-03-08T05:55:48;8.40;48.70
15574;DHT22;7888;46.748;8.102;2023-03-08T05:58:14;8.30;48.80
15574;DHT22;7888;46.748;8.102;2023-03-08T06:00:40;8.40;49.00
15574;DHT22;7888;46.748;8.102;2023-03-08T06:03:06;8.40;49.10
15574;DHT22;7888;46.748;8.102;2023-03-08T06:05:32;8.40;49.10
15574;DHT22;7888;46.748;8.102;2023-03-08T06:07:59;8.40;49.00
15574;DHT22;7888;46.748;8.102;2023-03-08T06:10:25;8.40;49.00
15574;DHT22;7888;46.748;8.102;2023-03-08T06:12:51;8.40;49.10
15574;DHT22;7888;46.748;8.102;2023-03-08T06:15:17;8.40;49.00
15574;DHT22;7888;46.748;8.102;2023-03-08T06:17:43;8.40;49.00
15574;DHT22;7888;46.748;8.102;2023-03-08T06:20:09;8.40;49.00
15574;DHT22;7888;46.748;8.102;2023-03-08T06:22:35;8.40;49.00
15574;DHT22;7888;46.748;8.102;2023-03-08T06:25:02;8.40;49.00
15574;DHT22;7888;46.748;8.102;2023-03-08T06:27:28;8.40;49.10
15574;DHT22;7888;46.748;8.102;2023-03-08T06:29:54;8.40;49.10
15574;DHT22;7888;46.748;8.102;2023-03-08T06:32:20;8.40;49.20
15574;DHT22;7888;46.748;8.102;2023-03-08T06:34:46;8.40;49.20
15574;DHT22;7888;46.748;8.102;2023-03-08T06:37:12;8.40;49.30
15574;DHT22;7888;46.748;8.102;2023-03-08T06:39:39;8.30;49.30
15574;DHT22;7888;46.748;8.102;2023-03-08T06:42:05;8.30;49.50
15574;DHT22;7888;46.748;8.102;2023-03-08T06:44:32;8.40;49.60
15574;DHT22;7888;46.748;8.102;2023-03-08T06:46:58;8.30;49.50
15574;DHT22;7888;46.748;8.102;2023-03-08T06:49:24;8.40;49.50
15574;DHT22;7888;46.748;8.102;2023-03-08T06:51:50;8.30;49.50
15574;DHT22;7888;46.748;8.102;2023-03-08T06:54:15;8.30;49.50
15574;DHT22;7888;46.748;8.102;2023-03-08T06:56:45;8.30;49.50
15574;DHT22;7888;46.748;8.102;2023-03-08T06:59:13;8.40;49.90
15574;DHT22;7888;46.748;8.102;2023-03-08T07:01:39;8.40;49.70
15574;DHT22;7888;46.748;8.102;2023-03-08T07:04:06;8.40;49.70
15574;DHT22;7888;46.748;8.102;2023-03-08T07:06:32;8.40;49.70
15574;DHT22;7888;46.748;8.102;2023-03-08T07:08:58;8.40;49.60
15574;DHT22;7888;46.748;8.102;2023-03-08T07:11:24;8.50;49.60
15574;DHT22;7888;46.748;8.102;2023-03-08T07:13:52;8.50;49.60
15574;DHT22;7888;46.748;8.102;2023-03-08T07:16:18;8.50;49.60
15574;DHT22;7888;46.748;8.102;2023-03-08T07:18:44;8.60;49.90
15574;DHT22;7888;46.748;8.102;2023-03-08T07:21:10;8.60;49.90
15574;DHT22;7888;46.748;8.102;2023-03-08T07:23:37;8.60;49.80
15574;DHT22;7888;46.748;8.102;2023-03-08T07:26:07;8.70;49.70
15574;DHT22;7888;46.748;8.102;2023-03-08T07:28:34;8.70;49.70
15574;DHT22;7888;46.748;8.102;2023-03-08T07:31:00;8.70;49.70
15574;DHT22;7888;46.748;8.102;2023-03-08T07:33:26;8.70;49.70
15574;DHT22;7888;46.748;8.102;2023-03-08T07:35:52;8.80;49.70
15574;DHT22;7888;46.748;8.102;2023-03-08T07:38:18;8.80;49.70
15574;DHT22;7888;46.748;8.102;2023-03-08T07:40:44;8.80;49.70
15574;DHT22;7888;46.748;8.102;2023-03-08T07:43:10;8.80;49.70
15574;DHT22;7888;46.748;8.102;2023-03-08T07:45:37;8.80;49.80
15574;DHT22;7888;46.748;8.102;2023-03-08T07:48:06;8.90;49.70
15574;DHT22;7888;46.748;8.102;2023-03-08T07:50:32;8.80;49.50
15574;DHT22;7888;46.748;8.102;2023-03-08T07:52:59;8.90;49.60
15574;DHT22;7888;46.748;8.102;2023-03-08T07:55:25;8.90;49.70
15574;DHT22;7888;46.748;8.102;2023-03-08T07:57:52;8.90;49.60
15574;DHT22;7888;46.748;8.102;2023-03-08T08:00:19;8.90;49.60
15574;DHT22;7888;46.748;8.102;2023-03-08T08:02:45;8.90;49.80
15574;DHT22;7888;46.748;8.102;2023-03-08T08:05:13;8.90;49.70
15574;DHT22;7888;46.748;8.102;2023-03-08T08:07:39;8.80;49.70
15574;DHT22;7888;46.748;8.102;2023-03-08T08:10:05;8.90;49.70
15574;DHT22;7888;46.748;8.102;2023-03-08T08:12:32;8.90;49.70
15574;DHT22;7888;46.748;8.102;2023-03-08T08:14:58;8.90;49.70
15574;DHT22;7888;46.748;8.102;2023-03-08T08:17:24;8.90;49.60
15574;DHT22;7888;46.748;8.102;2023-03-08T08:19:50;8.90;49.60
15574;DHT22;7888;46.748;8.102;2023-03-08T08:22:16;9.00;49.60
15574;DHT22;7888;46.748;8.102;2023-03-08T08:24:42;9.00;49.70
15574;DHT22;7888;46.748;8.102;2023-03-08T08:27:08;9.00;49.70
15574;DHT22;7888;46.748;8.102;2023-03-08T08:29:35;9.10;49.80
15574;DHT22;7888;46.748;8.102;2023-03-08T08:32:02;9.10;49.70
15574;DHT22;7888;46.748;8.102;2023-03-08T08:34:28;9.10;49.80
15574;DHT22;7888;46.748;8.102;2023-03-08T08:36:55;9.10;50.10
15574;DHT22;7888;46.748;8.102;2023-03-08T08:39:21;9.10;49.70
15574;DHT22;7888;46.748;8.102;2023-03-08T08:41:48;9.20;49.70
15574;DHT22;7888;46.748;8.102;2023-03-08T08:44:14;9.10;49.70
15574;DHT22;7888;46.748;8.102;2023-03-08T08:46:40;9.20;49.70
15574;DHT22;7888;46.748;8.102;2023-03-08T08:49:06;9.10;49.60
15574;DHT22;7888;46.748;8.102;2023-03-08T08:51:32;9.20;49.60
15574;DHT22;7888;46.748;8.102;2023-03-08T08:53:58;9.20;49.70
15574;DHT22;7888;46.748;8.102;2023-03-08T08:56:26;9.20;49.80
15574;DHT22;7888;46.748;8.102;2023-03-08T08:58:53;9.20;49.90
15574;DHT22;7888;46.748;8.102;2023-03-08T09:01:23;9.30;49.90
15574;DHT22;7888;46.748;8.102;2023-03-08T09:03:51;9.30;49.90
15574;DHT22;7888;46.748;8.102;2023-03-08T09:06:18;9.30;49.90
15574;DHT22;7888;46.748;8.102;2023-03-08T09:08:53;9.30;50.00
15574;DHT22;7888;46.748;8.102;2023-03-08T09:11:21;9.40;50.20
15574;DHT22;7888;46.748;8.102;2023-03-08T09:13:48;9.40;50.00
15574;DHT22;7888;46.748;8.102;2023-03-08T09:18:46;9.50;50.10
15574;DHT22;7888;46.748;8.102;2023-03-08T09:21:13;9.50;50.00
15574;DHT22;7888;46.748;8.102;2023-03-08T09:23:39;9.60;49.90
15574;DHT22;7888;46.748;8.102;2023-03-08T09:26:05;9.60;49.80
15574;DHT22;7888;46.748;8.102;2023-03-08T09:28:32;9.60;49.70
15574;DHT22;7888;46.748;8.102;2023-03-08T09:30:58;9.60;49.60
15574;DHT22;7888;46.748;8.102;2023-03-08T09:33:24;9.60;49.50
15574;DHT22;7888;46.748;8.102;2023-03-08T09:35:57;9.70;49.60
15574;DHT22;7888;46.748;8.102;2023-03-08T09:38:24;9.70;49.80
15574;DHT22;7888;46.748;8.102;2023-03-08T09:47:39;9.80;50.10
15574;DHT22;7888;46.748;8.102;2023-03-08T09:56:01;9.90;50.30
15574;DHT22;7888;46.748;8.102;2023-03-08T09:58:47;9.90;50.00
15574;DHT22;7888;46.748;8.102;2023-03-08T10:01:35;10.00;50.30
15574;DHT22;7888;46.748;8.102;2023-03-08T10:09:34;9.90;49.70
15574;DHT22;7888;46.748;8.102;2023-03-08T10:14:48;9.90;49.90
15574;DHT22;7888;46.748;8.102;2023-03-08T10:17:23;9.80;49.70
15574;DHT22;7888;46.748;8.102;2023-03-08T10:22:30;9.80;49.90
15574;DHT22;7888;46.748;8.102;2023-03-08T10:25:18;9.80;50.20
15574;DHT22;7888;46.748;8.102;2023-03-08T10:27:51;9.80;50.30
15574;DHT22;7888;46.748;8.102;2023-03-08T10:30:21;9.80;50.00
15574;DHT22;7888;46.748;8.102;2023-03-08T10:32:59;9.90;50.30
15574;DHT22;7888;46.748;8.102;2023-03-08T10:35:55;9.90;50.30
15574;DHT22;7888;46.748;8.102;2023-03-08T10:38:33;9.90;50.80
15574;DHT22;7888;46.748;8.102;2023-03-08T10:41:05;10.00;50.40
15574;DHT22;7888;46.748;8.102;2023-03-08T10:44:00;10.00;50.50
15574;DHT22;7888;46.748;8.102;2023-03-08T10:46:28;10.00;50.80
15574;DHT22;7888;46.748;8.102;2023-03-08T10:49:16;10.10;50.60
15574;DHT22;7888;46.748;8.102;2023-03-08T10:51:57;10.10;51.00
15574;DHT22;7888;46.748;8.102;2023-03-08T10:54:25;10.10;51.00
15574;DHT22;7888;46.748;8.102;2023-03-08T10:56:58;10.10;50.80
15574;DHT22;7888;46.748;8.102;2023-03-08T10:59:29;10.10;51.00
15574;DHT22;7888;46.748;8.102;2023-03-08T11:02:14;10.20;51.00
15574;DHT22;7888;46.748;8.102;2023-03-08T11:04:54;10.20;50.90
15574;DHT22;7888;46.748;8.102;2023-03-08T11:07:26;10.20;51.20
15574;DHT22;7888;46.748;8.102;2023-03-08T11:12:38;10.30;51.50
15574;DHT22;7888;46.748;8.102;2023-03-08T11:15:14;10.30;51.00
15574;DHT22;7888;46.748;8.102;2023-03-08T11:18:00;10.30;51.40
15574;DHT22;7888;46.748;8.102;2023-03-08T11:20:50;10.30;52.00
15574;DHT22;7888;46.748;8.102;2023-03-08T11:26:45;10.50;51.80
15574;DHT22;7888;46.748;8.102;2023-03-08T11:38:28;10.90;51.90
15574;DHT22;7888;46.748;8.102;2023-03-08T11:41:01;11.00;51.70
15574;DHT22;7888;46.748;8.102;2023-03-08T11:49:35;11.20;51.30
15574;DHT22;7888;46.748;8.102;2023-03-08T11:55:32;11.40;51.30
15574;DHT22;7888;46.748;8.102;2023-03-08T12:04:15;11.80;51.50
15574;DHT22;7888;46.748;8.102;2023-03-08T12:06:45;12.00;51.50
15574;DHT22;7888;46.748;8.102;2023-03-08T12:09:24;12.10;51.40
15574;DHT22;7888;46.748;8.102;2023-03-08T12:15:23;12.40;51.60
15574;DHT22;7888;46.748;8.102;2023-03-08T12:18:30;12.50;51.10
15574;DHT22;7888;46.748;8.102;2023-03-08T12:27:11;12.90;51.00
15574;DHT22;7888;46.748;8.102;2023-03-08T12:32:40;13.20;50.70
15574;DHT22;7888;46.748;8.102;2023-03-08T12:35:24;13.20;50.30
15574;DHT22;7888;46.748;8.102;2023-03-08T12:38:03;13.40;50.30
15574;DHT22;7888;46.748;8.102;2023-03-08T12:40:51;13.50;50.20
15574;DHT22;7888;46.748;8.102;2023-03-08T13:01:59;14.20;49.30
15574;DHT22;7888;46.748;8.102;2023-03-08T13:07:30;14.30;49.10
15574;DHT22;7888;46.748;8.102;2023-03-08T13:13:14;14.40;48.90
15574;DHT22;7888;46.748;8.102;2023-03-08T13:15:45;14.40;48.70
15574;DHT22;7888;46.748;8.102;2023-03-08T13:18:17;14.40;48.80
15574;DHT22;7888;46.748;8.102;2023-03-08T13:26:56;14.60;49.00
15574;DHT22;7888;46.748;8.102;2023-03-08T13:29:38;14.60;48.80
15574;DHT22;7888;46.748;8.102;2023-03-08T13:32:14;14.70;48.80
15574;DHT22;7888;46.748;8.102;2023-03-08T13:34:42;14.70;48.90
15574;DHT22;7888;46.748;8.102;2023-03-08T13:37:21;14.80;49.00
15574;DHT22;7888;46.748;8.102;2023-03-08T13:39:54;14.80;48.90
15574;DHT22;7888;46.748;8.102;2023-03-08T13:42:22;14.90;48.60
15574;DHT22;7888;46.748;8.102;2023-03-08T13:45:09;14.90;48.40
15574;DHT22;7888;46.748;8.102;2023-03-08T13:47:42;14.90;48.10
15574;DHT22;7888;46.748;8.102;2023-03-08T13:50:37;14.90;48.20
15574;DHT22;7888;46.748;8.102;2023-03-08T13:53:09;14.90;48.00
15574;DHT22;7888;46.748;8.102;2023-03-08T13:55:45;14.90;48.00
15574;DHT22;7888;46.748;8.102;2023-03-08T13:58:35;14.90;48.00
15574;DHT22;7888;46.748;8.102;2023-03-08T14:01:11;14.90;48.00
15574;DHT22;7888;46.748;8.102;2023-03-08T14:03:40;14.80;48.00
15574;DHT22;7888;46.748;8.102;2023-03-08T14:06:27;14.80;48.00
15574;DHT22;7888;46.748;8.102;2023-03-08T14:08:54;14.70;47.90
15574;DHT22;7888;46.748;8.102;2023-03-08T14:11:28;14.70;48.00
15574;DHT22;7888;46.748;8.102;2023-03-08T14:14:01;14.70;48.30
15574;DHT22;7888;46.748;8.102;2023-03-08T14:16:35;14.70;48.40
15574;DHT22;7888;46.748;8.102;2023-03-08T14:19:29;14.70;48.50
15574;DHT22;7888;46.748;8.102;2023-03-08T14:22:14;14.70;48.70
15574;DHT22;7888;46.748;8.102;2023-03-08T14:24:49;14.70;48.50
15574;DHT22;7888;46.748;8.102;2023-03-08T14:29:44;14.70;48.90
15574;DHT22;7888;46.748;8.102;2023-03-08T14:40:06;14.70;48.70
15574;DHT22;7888;46.748;8.102;2023-03-08T14:42:46;14.60;48.60
15574;DHT22;7888;46.748;8.102;2023-03-08T14:47:59;14.60;48.50
15574;DHT22;7888;46.748;8.102;2023-03-08T14:50:30;14.60;48.60
15574;DHT22;7888;46.748;8.102;2023-03-08T14:53:01;14.50;48.70
15574;DHT22;7888;46.748;8.102;2023-03-08T14:55:33;14.50;48.80
15574;DHT22;7888;46.748;8.102;2023-03-08T14:58:18;14.50;48.80
15574;DHT22;7888;46.748;8.102;2023-03-08T15:00:53;14.50;49.10
15574;DHT22;7888;46.748;8.102;2023-03-08T15:03:20;14.50;48.70
15574;DHT22;7888;46.748;8.102;2023-03-08T15:05:46;14.40;48.70
15574;DHT22;7888;46.748;8.102;2023-03-08T15:08:13;14.40;48.80
15574;DHT22;7888;46.748;8.102;2023-03-08T15:10:41;14.40;49.00
15574;DHT22;7888;46.748;8.102;2023-03-08T15:13:17;14.40;49.00
15574;DHT22;7888;46.748;8.102;2023-03-08T15:15:45;14.40;49.10
15574;DHT22;7888;46.748;8.102;2023-03-08T15:18:12;14.30;48.90
15574;DHT22;7888;46.748;8.102;2023-03-08T15:20:41;14.30;49.00
15574;DHT22;7888;46.748;8.102;2023-03-08T15:23:24;14.30;49.30
15574;DHT22;7888;46.748;8.102;2023-03-08T15:25:54;14.30;49.40
15574;DHT22;7888;46.748;8.102;2023-03-08T15:28:22;14.30;48.80
15574;DHT22;7888;46.748;8.102;2023-03-08T15:30:49;14.20;48.60
15574;DHT22;7888;46.748;8.102;2023-03-08T15:33:17;14.20;48.70
15574;DHT22;7888;46.748;8.102;2023-03-08T15:35:43;14.20;48.80
15574;DHT22;7888;46.748;8.102;2023-03-08T15:38:14;14.20;48.80
15574;DHT22;7888;46.748;8.102;2023-03-08T15:40:42;14.20;48.70
15574;DHT22;7888;46.748;8.102;2023-03-08T15:43:08;14.30;48.70
15574;DHT22;7888;46.748;8.102;2023-03-08T15:45:35;14.30;48.70
15574;DHT22;7888;46.748;8.102;2023-03-08T15:48:11;14.30;48.90
15574;DHT22;7888;46.748;8.102;2023-03-08T15:50:38;14.30;49.00
15574;DHT22;7888;46.748;8.102;2023-03-08T15:53:05;14.40;49.10
15574;DHT22;7888;46.748;8.102;2023-03-08T15:55:32;14.40;49.30
15574;DHT22;7888;46.748;8.102;2023-03-08T15:57:58;14.40;49.40
15574;DHT22;7888;46.748;8.102;2023-03-08T16:00:24;14.40;49.70
15574;DHT22;7888;46.748;8.102;2023-03-08T16:02:50;14.30;49.60
15574;DHT22;7888;46.748;8.102;2023-03-08T16:05:18;14.30;49.50
15574;DHT22;7888;46.748;8.102;2023-03-08T16:07:51;14.30;49.80
15574;DHT22;7888;46.748;8.102;2023-03-08T16:10:18;14.30;50.10
15574;DHT22;7888;46.748;8.102;2023-03-08T16:12:44;14.30;50.10
15574;DHT22;7888;46.748;8.102;2023-03-08T16:15:10;14.30;50.30
15574;DHT22;7888;46.748;8.102;2023-03-08T16:17:35;14.30;50.50
15574;DHT22;7888;46.748;8.102;2023-03-08T16:20:02;14.30;50.50
15574;DHT22;7888;46.748;8.102;2023-03-08T16:22:32;14.30;50.70
15574;DHT22;7888;46.748;8.102;2023-03-08T16:24:59;14.20;50.60
15574;DHT22;7888;46.748;8.102;2023-03-08T16:27:25;14.20;50.60
15574;DHT22;7888;46.748;8.102;2023-03-08T16:29:54;14.20;50.90
15574;DHT22;7888;46.748;8.102;2023-03-08T16:32:20;14.10;51.00
15574;DHT22;7888;46.748;8.102;2023-03-08T16:34:46;14.10;51.10
15574;DHT22;7888;46.748;8.102;2023-03-08T16:37:17;14.10;51.00
15574;DHT22;7888;46.748;8.102;2023-03-08T16:39:43;14.00;51.10
15574;DHT22;7888;46.748;8.102;2023-03-08T16:42:12;14.00;51.00
15574;DHT22;7888;46.748;8.102;2023-03-08T16:44:39;14.00;51.40
15574;DHT22;7888;46.748;8.102;2023-03-08T16:47:06;13.90;51.30
15574;DHT22;7888;46.748;8.102;2023-03-08T16:49:33;13.90;51.40
15574;DHT22;7888;46.748;8.102;2023-03-08T16:52:00;13.80;51.40
15574;DHT22;7888;46.748;8.102;2023-03-08T16:54:26;13.80;51.60
15574;DHT22;7888;46.748;8.102;2023-03-08T16:56:51;13.80;51.70
15574;DHT22;7888;46.748;8.102;2023-03-08T16:59:17;13.80;51.70
15574;DHT22;7888;46.748;8.102;2023-03-08T17:01:43;13.70;51.60
15574;DHT22;7888;46.748;8.102;2023-03-08T17:04:12;13.70;51.50
15574;DHT22;7888;46.748;8.102;2023-03-08T17:06:38;13.60;51.40
15574;DHT22;7888;46.748;8.102;2023-03-08T17:09:04;13.60;51.40
15574;DHT22;7888;46.748;8.102;2023-03-08T17:11:32;13.60;51.70
15574;DHT22;7888;46.748;8.102;2023-03-08T17:14:08;13.50;51.70
15574;DHT22;7888;46.748;8.102;2023-03-08T17:16:35;13.50;51.90
15574;DHT22;7888;46.748;8.102;2023-03-08T17:19:04;13.40;51.90
15574;DHT22;7888;46.748;8.102;2023-03-08T17:21:32;13.30;51.30
15574;DHT22;7888;46.748;8.102;2023-03-08T17:24:04;13.30;51.30
15574;DHT22;7888;46.748;8.102;2023-03-08T17:26:33;13.20;51.30
15574;DHT22;7888;46.748;8.102;2023-03-08T17:29:02;13.20;51.40
15574;DHT22;7888;46.748;8.102;2023-03-08T17:31:28;13.10;51.50
15574;DHT22;7888;46.748;8.102;2023-03-08T17:33:54;13.10;51.60
15574;DHT22;7888;46.748;8.102;2023-03-08T17:36:20;13.00;51.80
15574;DHT22;7888;46.748;8.102;2023-03-08T17:38:46;13.00;52.10
15574;DHT22;7888;46.748;8.102;2023-03-08T17:41:14;13.00;52.20
15574;DHT22;7888;46.748;8.102;2023-03-08T17:43:41;12.90;52.40
15574;DHT22;7888;46.748;8.102;2023-03-08T17:46:13;12.90;52.30
15574;DHT22;7888;46.748;8.102;2023-03-08T17:48:41;12.90;52.70
15574;DHT22;7888;46.748;8.102;2023-03-08T17:51:09;12.90;52.60
15574;DHT22;7888;46.748;8.102;2023-03-08T17:53:38;12.80;52.70
15574;DHT22;7888;46.748;8.102;2023-03-08T17:56:09;12.80;52.60
15574;DHT22;7888;46.748;8.102;2023-03-08T17:58:38;12.80;52.80
15574;DHT22;7888;46.748;8.102;2023-03-08T18:01:12;12.70;52.80
15574;DHT22;7888;46.748;8.102;2023-03-08T18:03:41;12.70;53.30